Sierra Blanca Regional Airport Ruidoso US
ICAO: KSRR
IATA: SRR
Category: Medium
Scheduled Services: No

Elevation: 6814 ft
TransAlt. 18000 ft.

Airport Communications:
AWOS 3:126.475
ALBUQUERQUE CNTR:132.65
ALBUQUERQUE RDO:122.25
CTAF/UNICOM:122.8

KSRR Zoom In..

If you have problems with the map follow the link
https://www.worldairports.se/pages/airport.php?
ICAO=KSRR

Runways:

(A) RW 06 length 8120 ft width 100 ft
---- / hdg 61

(B) RW 12 length 6309 ft width 75 ft
---- / hdg 122

(C) RW 24 length 8120 ft width 100 ft
ILS 110.70 / hdg 241

(D) RW 30 length 6309 ft width 75 ft
---- / hdg 302

Location; KSRR
Day. 17 / Time. 21.55 Zulu
* Altimeter: 30.02
* Temperature: 11° c. 51.8°f.
* Wind from: 220° Speed 23 kn with Gusts up to 28 kn.
Dewpoint: -02° c.
Visibility: 10 Statute Miles.
Clouds: Clear (automated report).

KSRR 172155Z AUTO 22023G28KT 10SM CLR 11/M02 A3002 RMK AO2


Wind From 220°
Speed 23 kn.

 
 
jpsmedia worldairports.se 2020   terms of use